Time;durP1;ratioP1;P1;durP2;ratioP2;P2;SDS_P1;SDS_P2;PMS_P1;PMS_P2;Temp;Humidity;BMP_temperature;BMP_pressure;BME280_temperature;BME280_humidity;BME280_pressure;Samples;Min_cycle;Max_cycle;Signal;HPM_P1;HPM_P2
2022/09/02 00:01:50;;;;;;;2.70;2.50;;;;;;;;;;4974044;28;20441;-48
2022/09/02 00:04:18;;;;;;;2.27;2.17;;;;;;;;;;4973719;28;20469;-48
2022/09/02 00:06:46;;;;;;;2.10;1.90;;;;;;;;;;4973826;28;20440;-48
2022/09/02 00:09:13;;;;;;;2.70;2.10;;;;;;;;;;4973526;28;20835;-48
2022/09/02 00:11:41;;;;;;;2.17;1.97;;;;;;;;;;4973793;28;20470;-50
2022/09/02 00:14:10;;;;;;;1.80;1.70;;;;;;;;;;4972340;28;20433;-48
2022/09/02 00:16:37;;;;;;;1.80;1.70;;;;;;;;;;4973625;28;20435;-51
2022/09/02 00:19:04;;;;;;;1.73;1.63;;;;;;;;;;4973440;28;20788;-48
2022/09/02 00:21:33;;;;;;;2.80;1.90;;;;;;;;;;4973887;28;20401;-48
2022/09/02 00:23:59;;;;;;;2.10;2.00;;;;;;;;;;4973602;28;20449;-49
2022/09/02 00:26:26;;;;;;;2.27;2.07;;;;;;;;;;4972755;28;20434;-48
2022/09/02 00:28:52;;;;;;;5.33;1.77;;;;;;;;;;4973204;28;20460;-49
2022/09/02 00:31:18;;;;;;;2.17;1.97;;;;;;;;;;4973586;28;20917;-48
2022/09/02 00:33:44;;;;;;;1.80;1.70;;;;;;;;;;4972740;28;20467;-51
2022/09/02 00:36:10;;;;;;;2.40;2.20;;;;;;;;;;4972013;28;20515;-49
2022/09/02 00:38:38;;;;;;;2.37;1.97;;;;;;;;;;4972754;28;20437;-50
2022/09/02 00:41:05;;;;;;;4.07;2.00;;;;;;;;;;4973365;28;20470;-51
2022/09/02 00:43:44;;;;;;;2.40;2.20;;;;;;;;;;4972982;28;21043;-48
2022/09/02 00:46:10;;;;;;;10.33;2.00;;;;;;;;;;4972962;28;20443;-48
2022/09/02 00:48:39;;;;;;;2.37;2.13;;;;;;;;;;4973059;28;20465;-48
2022/09/02 00:51:06;;;;;;;4.43;2.30;;;;;;;;;;4973086;28;20425;-48
2022/09/02 00:53:32;;;;;;;1.80;1.70;;;;;;;;;;4973340;28;20376;-48
2022/09/02 00:55:58;;;;;;;3.10;1.90;;;;;;;;;;4972842;28;20407;-48
2022/09/02 00:58:30;;;;;;;2.30;2.10;;;;;;;;;;4973354;28;20513;-48
2022/09/02 01:00:56;;;;;;;2.93;1.87;;;;;;;;;;4972599;28;20979;-51
2022/09/02 01:03:25;;;;;;;2.27;1.93;;;;;;;;;;4972806;28;20409;-48
2022/09/02 01:05:53;;;;;;;3.73;1.83;;;;;;;;;;4970343;28;20431;-48
2022/09/02 01:08:21;;;;;;;2.57;2.00;;;;;;;;;;4972217;28;20472;-48
2022/09/02 01:10:48;;;;;;;2.57;1.90;;;;;;;;;;4972424;28;20421;-48
2022/09/02 01:13:16;;;;;;;2.80;2.00;;;;;;;;;;4972713;28;20388;-48
2022/09/02 01:15:44;;;;;;;3.40;1.87;;;;;;;;;;4972556;28;20412;-48
2022/09/02 01:18:14;;;;;;;2.40;2.20;;;;;;;;;;4972504;28;20400;-48
2022/09/02 01:20:41;;;;;;;2.70;1.80;;;;;;;;;;4972266;28;20496;-48
2022/09/02 01:23:07;;;;;;;1.90;1.80;;;;;;;;;;4973000;28;20406;-48
2022/09/02 01:25:33;;;;;;;2.33;2.13;;;;;;;;;;4978228;28;20397;-48
2022/09/02 01:28:01;;;;;;;2.47;1.97;;;;;;;;;;4979277;28;20435;-48
2022/09/02 01:30:27;;;;;;;3.53;2.33;;;;;;;;;;4978862;28;20486;-48
2022/09/02 01:32:54;;;;;;;2.13;1.93;;;;;;;;;;4979018;28;20384;-48
2022/09/02 01:35:19;;;;;;;1.63;1.50;;;;;;;;;;4977081;28;20399;-48
2022/09/02 01:37:46;;;;;;;4.60;2.10;;;;;;;;;;4978759;28;20805;-48
2022/09/02 01:40:14;;;;;;;2.93;1.90;;;;;;;;;;4978660;28;20809;-48
2022/09/02 01:42:40;;;;;;;2.23;2.00;;;;;;;;;;4967901;28;20765;-48
2022/09/02 01:45:07;;;;;;;2.10;1.90;;;;;;;;;;4978866;28;20420;-48
2022/09/02 01:47:33;;;;;;;1.60;1.50;;;;;;;;;;4978457;28;20415;-49
2022/09/02 01:49:59;;;;;;;3.77;1.93;;;;;;;;;;4979065;28;20442;-48
2022/09/02 01:52:27;;;;;;;1.87;1.77;;;;;;;;;;4979043;28;20400;-48
2022/09/02 01:54:53;;;;;;;1.73;1.63;;;;;;;;;;4978940;28;20387;-51
2022/09/02 01:57:23;;;;;;;1.83;1.73;;;;;;;;;;4978911;28;20468;-51
2022/09/02 01:59:49;;;;;;;2.20;1.93;;;;;;;;;;4978520;28;20425;-48
2022/09/02 02:02:17;;;;;;;3.20;2.00;;;;;;;;;;4978717;28;20387;-48
2022/09/02 02:04:44;;;;;;;2.57;2.00;;;;;;;;;;4978929;28;20916;-48
2022/09/02 02:07:10;;;;;;;3.27;2.50;;;;;;;;;;4976859;28;20665;-48
2022/09/02 02:09:36;;;;;;;2.10;1.90;;;;;;;;;;4979010;28;20449;-48
2022/09/02 02:12:02;;;;;;;4.20;2.10;;;;;;;;;;4977037;28;20424;-48
2022/09/02 02:14:29;;;;;;;3.27;2.00;;;;;;;;;;4978642;28;20783;-48
2022/09/02 02:16:55;;;;;;;2.20;2.00;;;;;;;;;;4978671;28;20441;-48
2022/09/02 02:19:21;;;;;;;4.03;1.83;;;;;;;;;;4978707;28;20378;-49
2022/09/02 02:21:47;;;;;;;2.50;1.93;;;;;;;;;;4978120;28;20395;-49
2022/09/02 02:24:13;;;;;;;2.33;2.20;;;;;;;;;;4978678;28;20493;-48
2022/09/02 02:26:39;;;;;;;2.10;2.00;;;;;;;;;;4978290;28;20411;-48
2022/09/02 02:29:05;;;;;;;2.20;2.03;;;;;;;;;;4978334;28;21084;-48
2022/09/02 02:31:31;;;;;;;2.73;2.43;;;;;;;;;;4978646;28;20523;-48
2022/09/02 02:33:58;;;;;;;1.80;1.70;;;;;;;;;;4978727;28;20428;-48
2022/09/02 02:36:24;;;;;;;1.97;1.87;;;;;;;;;;4974059;28;20471;-51
2022/09/02 02:38:50;;;;;;;2.83;2.30;;;;;;;;;;4974373;28;20426;-48
2022/09/02 02:41:16;;;;;;;3.47;2.10;;;;;;;;;;4975541;28;20429;-48
2022/09/02 02:43:43;;;;;;;2.90;1.90;;;;;;;;;;4975556;28;20391;-48
2022/09/02 02:46:10;;;;;;;1.80;1.70;;;;;;;;;;4975277;28;20452;-48
2022/09/02 02:48:37;;;;;;;2.30;1.97;;;;;;;;;;4974337;28;20438;-48
2022/09/02 02:51:03;;;;;;;2.00;1.90;;;;;;;;;;4975489;28;20383;-48
2022/09/02 02:53:30;;;;;;;2.20;2.00;;;;;;;;;;4975672;28;20387;-48
2022/09/02 02:55:56;;;;;;;2.00;1.80;;;;;;;;;;4956592;28;20384;-50
2022/09/02 02:58:22;;;;;;;5.03;1.80;;;;;;;;;;4955944;29;20468;-49
2022/09/02 03:00:49;;;;;;;2.30;1.90;;;;;;;;;;4955962;29;20500;-50
2022/09/02 03:03:18;;;;;;;3.07;1.73;;;;;;;;;;4956031;29;20413;-49
2022/09/02 03:05:44;;;;;;;2.47;2.07;;;;;;;;;;4955997;29;21087;-50
2022/09/02 03:08:10;;;;;;;2.33;2.17;;;;;;;;;;4968260;28;20439;-51
2022/09/02 03:10:37;;;;;;;3.93;2.00;;;;;;;;;;4974629;28;20907;-48
2022/09/02 03:13:03;;;;;;;3.90;2.30;;;;;;;;;;4974846;28;20417;-49
2022/09/02 03:15:29;;;;;;;4.10;2.60;;;;;;;;;;4974720;28;20448;-48
2022/09/02 03:17:56;;;;;;;3.30;2.10;;;;;;;;;;4974409;28;20495;-49
2022/09/02 03:20:23;;;;;;;2.07;1.90;;;;;;;;;;4974882;28;20412;-48
2022/09/02 03:22:49;;;;;;;2.30;2.10;;;;;;;;;;4974999;28;20461;-48
2022/09/02 03:25:16;;;;;;;2.00;1.87;;;;;;;;;;4974574;28;20866;-48
2022/09/02 03:27:45;;;;;;;3.83;2.30;;;;;;;;;;4974249;28;20823;-50
2022/09/02 03:30:14;;;;;;;2.17;1.97;;;;;;;;;;4974681;28;20454;-48
2022/09/02 03:32:41;;;;;;;4.50;2.33;;;;;;;;;;4974471;28;20463;-49
2022/09/02 03:35:08;;;;;;;3.00;2.50;;;;;;;;;;4974517;28;20903;-48
2022/09/02 03:37:35;;;;;;;2.50;1.80;;;;;;;;;;4973173;28;20492;-48
2022/09/02 03:40:05;;;;;;;2.47;2.20;;;;;;;;;;4973988;28;20417;-50
2022/09/02 03:42:31;;;;;;;2.30;2.10;;;;;;;;;;4974738;28;20410;-48
2022/09/02 03:44:57;;;;;;;2.27;2.07;;;;;;;;;;4974284;28;20420;-48
2022/09/02 03:47:23;;;;;;;2.87;2.20;;;;;;;;;;4973945;28;20440;-48
2022/09/02 03:49:49;;;;;;;7.50;3.27;;;;;;;;;;4973953;28;20490;-48
2022/09/02 03:52:15;;;;;;;2.20;2.00;;;;;;;;;;4974391;28;20425;-48
2022/09/02 03:54:41;;;;;;;4.57;2.10;;;;;;;;;;4973854;28;20395;-48
2022/09/02 03:57:07;;;;;;;4.00;2.10;;;;;;;;;;4974115;28;20484;-48
2022/09/02 03:59:33;;;;;;;3.20;1.80;;;;;;;;;;4973821;28;20432;-48
2022/09/02 04:02:01;;;;;;;2.70;2.47;;;;;;;;;;4974126;28;20989;-48
2022/09/02 04:04:28;;;;;;;2.60;2.37;;;;;;;;;;4973887;28;20781;-48
2022/09/02 04:06:54;;;;;;;4.30;2.30;;;;;;;;;;4972576;28;20458;-48
2022/09/02 04:09:21;;;;;;;1.90;1.80;;;;;;;;;;4973020;28;20471;-48
2022/09/02 04:11:47;;;;;;;3.00;2.30;;;;;;;;;;4973686;28;20456;-48
2022/09/02 04:14:13;;;;;;;4.23;2.23;;;;;;;;;;4973842;28;20616;-48
2022/09/02 04:16:39;;;;;;;3.30;2.10;;;;;;;;;;4973590;28;20524;-48
2022/09/02 04:19:05;;;;;;;2.37;2.20;;;;;;;;;;4973382;28;20434;-48
2022/09/02 04:21:33;;;;;;;6.23;2.30;;;;;;;;;;4973670;28;20454;-48
2022/09/02 04:23:59;;;;;;;8.13;2.47;;;;;;;;;;4973609;28;20841;-48
2022/09/02 04:26:25;;;;;;;3.37;2.07;;;;;;;;;;4973618;28;20453;-48
2022/09/02 04:28:52;;;;;;;7.63;2.33;;;;;;;;;;4972925;28;20463;-48
2022/09/02 04:31:19;;;;;;;3.60;2.93;;;;;;;;;;4973519;28;20990;-49
2022/09/02 04:33:46;;;;;;;3.37;2.47;;;;;;;;;;4973458;28;20438;-50
2022/09/02 04:36:14;;;;;;;4.73;2.60;;;;;;;;;;4973463;28;20478;-48
2022/09/02 04:38:40;;;;;;;2.50;2.30;;;;;;;;;;4972076;28;20438;-48
2022/09/02 04:41:07;;;;;;;3.50;2.50;;;;;;;;;;4971001;28;20418;-48
2022/09/02 04:43:33;;;;;;;9.20;2.23;;;;;;;;;;4973179;28;20435;-48
2022/09/02 04:46:00;;;;;;;3.50;3.20;;;;;;;;;;4973409;28;20589;-48
2022/09/02 04:48:26;;;;;;;4.80;2.53;;;;;;;;;;4962535;28;20926;-48
2022/09/02 04:50:52;;;;;;;2.80;2.60;;;;;;;;;;4973094;28;20407;-51
2022/09/02 04:53:18;;;;;;;3.50;2.50;;;;;;;;;;4971963;28;20430;-48
2022/09/02 04:55:44;;;;;;;6.13;2.80;;;;;;;;;;4972845;28;20427;-49
2022/09/02 04:58:10;;;;;;;3.40;2.83;;;;;;;;;;4972924;28;20412;-51
2022/09/02 05:00:37;;;;;;;3.43;3.10;;;;;;;;;;4972108;28;20417;-48
2022/09/02 05:03:05;;;;;;;4.53;2.70;;;;;;;;;;4972346;28;20936;-48
2022/09/02 05:05:31;;;;;;;5.50;2.43;;;;;;;;;;4972481;28;20505;-49
2022/09/02 05:07:57;;;;;;;5.23;3.20;;;;;;;;;;4970956;28;20467;-49
2022/09/02 05:10:23;;;;;;;3.33;2.80;;;;;;;;;;4971512;28;20492;-51
2022/09/02 05:12:51;;;;;;;3.53;2.67;;;;;;;;;;4972221;28;20395;-50
2022/09/02 05:15:17;;;;;;;6.13;2.33;;;;;;;;;;4972076;28;20445;-48
2022/09/02 05:17:45;;;;;;;4.30;2.40;;;;;;;;;;4972507;28;20527;-48
2022/09/02 05:20:11;;;;;;;3.17;2.87;;;;;;;;;;4971850;28;20917;-54
2022/09/02 05:22:37;;;;;;;2.97;2.70;;;;;;;;;;4972466;28;20387;-49
2022/09/02 05:25:06;;;;;;;2.93;2.37;;;;;;;;;;4972407;28;20420;-50
2022/09/02 05:27:32;;;;;;;4.90;2.50;;;;;;;;;;4968803;28;20803;-48
2022/09/02 05:29:58;;;;;;;8.70;2.70;;;;;;;;;;4972160;28;20446;-48
2022/09/02 05:32:26;;;;;;;3.17;2.87;;;;;;;;;;4971863;28;20895;-49
2022/09/02 05:34:52;;;;;;;3.80;2.53;;;;;;;;;;4971692;28;20487;-48
2022/09/02 05:37:18;;;;;;;3.73;2.50;;;;;;;;;;4970065;28;20813;-49
2022/09/02 05:39:44;;;;;;;2.90;2.70;;;;;;;;;;4972311;28;20486;-48
2022/09/02 05:42:10;;;;;;;4.33;2.50;;;;;;;;;;4971673;28;20500;-48
2022/09/02 05:44:37;;;;;;;7.13;3.00;;;;;;;;;;4971987;28;20500;-49
2022/09/02 05:47:03;;;;;;;3.23;2.93;;;;;;;;;;4971733;28;20530;-48
2022/09/02 05:49:29;;;;;;;3.07;2.77;;;;;;;;;;4971747;28;20423;-48
2022/09/02 05:51:56;;;;;;;3.03;2.80;;;;;;;;;;4971822;28;20391;-48
2022/09/02 05:54:24;;;;;;;3.03;2.73;;;;;;;;;;4972273;28;20424;-48
2022/09/02 05:56:52;;;;;;;2.80;2.50;;;;;;;;;;4971942;28;20414;-48
2022/09/02 05:59:19;;;;;;;2.60;2.40;;;;;;;;;;4973084;28;20410;-48
2022/09/02 06:01:46;;;;;;;3.40;3.10;;;;;;;;;;4970975;28;20962;-49
2022/09/02 06:04:12;;;;;;;3.40;2.60;;;;;;;;;;4972360;28;20426;-48
2022/09/02 06:06:38;;;;;;;3.53;2.80;;;;;;;;;;4970654;28;20848;-53
2022/09/02 06:09:08;;;;;;;3.13;2.93;;;;;;;;;;4967237;28;20481;-48
2022/09/02 06:11:38;;;;;;;7.20;3.10;;;;;;;;;;4975029;28;20424;-48
2022/09/02 06:14:06;;;;;;;3.50;2.83;;;;;;;;;;4975639;28;20492;-49
2022/09/02 06:16:32;;;;;;;8.40;3.33;;;;;;;;;;4975701;28;20482;-50
2022/09/02 06:18:58;;;;;;;9.87;3.17;;;;;;;;;;4975770;28;20471;-51
2022/09/02 06:21:24;;;;;;;3.90;3.60;;;;;;;;;;4975881;28;20910;-51
2022/09/02 06:23:50;;;;;;;6.03;2.70;;;;;;;;;;4975615;28;20406;-48
2022/09/02 06:26:17;;;;;;;3.97;3.03;;;;;;;;;;4975611;28;20416;-48
2022/09/02 06:28:43;;;;;;;6.13;3.13;;;;;;;;;;4975178;28;20522;-49
2022/09/02 06:31:11;;;;;;;5.53;2.80;;;;;;;;;;4975585;28;20478;-49
2022/09/02 06:33:38;;;;;;;11.13;3.30;;;;;;;;;;4975736;28;20902;-48
2022/09/02 06:36:08;;;;;;;4.93;3.70;;;;;;;;;;4975252;28;20457;-49
2022/09/02 06:38:42;;;;;;;3.40;2.50;;;;;;;;;;4974371;28;20416;-53
2022/09/02 06:41:10;;;;;;;2.20;2.00;;;;;;;;;;4974706;28;20411;-48
2022/09/02 06:43:36;;;;;;;4.73;2.93;;;;;;;;;;4975307;28;20395;-50
2022/09/02 06:46:02;;;;;;;2.60;2.40;;;;;;;;;;4975401;28;20457;-49
2022/09/02 06:48:28;;;;;;;2.43;2.23;;;;;;;;;;4975036;28;21005;-48
2022/09/02 06:50:54;;;;;;;2.80;2.10;;;;;;;;;;4974838;28;20422;-48
2022/09/02 06:53:20;;;;;;;2.47;2.27;;;;;;;;;;4975217;28;20853;-48
2022/09/02 06:55:47;;;;;;;5.17;2.40;;;;;;;;;;4975058;28;20428;-51
2022/09/02 06:58:13;;;;;;;5.10;2.53;;;;;;;;;;4974802;28;20420;-49
2022/09/02 07:00:40;;;;;;;5.13;2.30;;;;;;;;;;4975086;28;20384;-49
2022/09/02 07:05:58;;;;;;;5.70;2.40;;;;;;;;;;4974596;28;20458;-51
2022/09/02 07:08:24;;;;;;;8.00;2.30;;;;;;;;;;4972617;28;20503;-48
2022/09/02 07:10:50;;;;;;;5.77;2.17;;;;;;;;;;4973747;28;20477;-51
2022/09/02 07:13:16;;;;;;;7.03;2.50;;;;;;;;;;4974451;28;20419;-51
2022/09/02 07:15:42;;;;;;;5.23;2.30;;;;;;;;;;4974540;28;20454;-48
2022/09/02 07:18:08;;;;;;;10.17;2.50;;;;;;;;;;4974148;28;20921;-48
2022/09/02 07:20:34;;;;;;;6.40;1.80;;;;;;;;;;4974986;28;20432;-50
2022/09/02 07:23:00;;;;;;;2.00;1.90;;;;;;;;;;4973571;28;20416;-50
2022/09/02 07:25:26;;;;;;;6.90;2.50;;;;;;;;;;4974672;28;20412;-52
2022/09/02 07:27:53;;;;;;;3.63;2.00;;;;;;;;;;4967206;28;20437;-51
2022/09/02 07:30:19;;;;;;;5.27;1.90;;;;;;;;;;4973953;28;20474;-50
2022/09/02 07:32:45;;;;;;;3.03;1.93;;;;;;;;;;4973844;28;20917;-51
2022/09/02 07:35:11;;;;;;;5.83;1.90;;;;;;;;;;4974311;28;20413;-49
2022/09/02 07:37:37;;;;;;;5.90;2.07;;;;;;;;;;4973655;28;20944;-51
2022/09/02 07:40:05;;;;;;;4.43;2.30;;;;;;;;;;4972564;28;20437;-52
2022/09/02 07:42:31;;;;;;;4.67;2.20;;;;;;;;;;4973906;28;20935;-52
2022/09/02 07:44:57;;;;;;;6.00;2.17;;;;;;;;;;4974093;28;20425;-50
2022/09/02 07:47:23;;;;;;;4.43;2.40;;;;;;;;;;4973671;28;20802;-50
2022/09/02 07:49:49;;;;;;;9.00;3.10;;;;;;;;;;4973646;28;20471;-50
2022/09/02 07:52:15;;;;;;;6.30;2.50;;;;;;;;;;4973743;28;20422;-50
2022/09/02 07:54:41;;;;;;;5.53;2.60;;;;;;;;;;4968690;28;20430;-50
2022/09/02 07:57:07;;;;;;;5.93;2.50;;;;;;;;;;4973548;28;20940;-50
2022/09/02 07:59:33;;;;;;;6.80;2.60;;;;;;;;;;4973640;28;20464;-50
2022/09/02 08:01:59;;;;;;;3.30;3.00;;;;;;;;;;4973873;28;20967;-50
2022/09/02 08:04:26;;;;;;;4.20;2.93;;;;;;;;;;4974399;28;20475;-50
2022/09/02 08:06:53;;;;;;;6.93;2.80;;;;;;;;;;4972996;28;20448;-51
2022/09/02 08:09:19;;;;;;;3.63;2.10;;;;;;;;;;4972025;28;20488;-52
2022/09/02 08:11:47;;;;;;;5.47;2.70;;;;;;;;;;4973493;28;20480;-53
2022/09/02 08:14:16;;;;;;;6.83;2.57;;;;;;;;;;4973997;28;20425;-51
2022/09/02 08:16:43;;;;;;;3.90;2.37;;;;;;;;;;4974160;28;20937;-50
2022/09/02 08:19:09;;;;;;;2.97;2.27;;;;;;;;;;4973378;28;20913;-52
2022/09/02 08:21:36;;;;;;;10.23;2.53;;;;;;;;;;4972396;28;20441;-50
2022/09/02 08:24:02;;;;;;;4.70;2.27;;;;;;;;;;4974204;28;20483;-51
2022/09/02 08:26:29;;;;;;;6.33;2.60;;;;;;;;;;4973667;28;20496;-51
2022/09/02 08:28:55;;;;;;;4.20;2.50;;;;;;;;;;4972722;28;21174;-53
2022/09/02 08:31:21;;;;;;;12.33;3.07;;;;;;;;;;4972533;28;20755;-52
2022/09/02 08:33:48;;;;;;;5.40;2.47;;;;;;;;;;4972780;28;20868;-50
2022/09/02 08:36:14;;;;;;;11.10;2.87;;;;;;;;;;4972269;28;20487;-49
2022/09/02 08:38:41;;;;;;;2.27;2.07;;;;;;;;;;4972056;28;20836;-52
2022/09/02 08:41:22;;;;;;;3.20;2.67;;;;;;;;;;4971742;28;20935;-53
2022/09/02 08:43:49;;;;;;;5.97;2.40;;;;;;;;;;4973732;28;20786;-52
2022/09/02 08:46:16;;;;;;;6.63;2.30;;;;;;;;;;4973069;28;20997;-51
2022/09/02 08:48:49;;;;;;;3.23;2.13;;;;;;;;;;4971040;28;20614;-51
2022/09/02 08:51:34;;;;;;;8.80;2.53;;;;;;;;;;4973808;28;20416;-52
2022/09/02 08:54:19;;;;;;;3.40;2.53;;;;;;;;;;4973809;28;20399;-52
2022/09/02 08:56:47;;;;;;;3.27;2.00;;;;;;;;;;4972597;28;21024;-53
2022/09/02 08:59:14;;;;;;;2.80;2.30;;;;;;;;;;4973175;28;20420;-52
2022/09/02 09:01:40;;;;;;;3.07;2.13;;;;;;;;;;4973551;28;20471;-51
2022/09/02 09:04:11;;;;;;;4.23;2.30;;;;;;;;;;4972350;28;20429;-51
2022/09/02 09:06:45;;;;;;;3.93;2.13;;;;;;;;;;4972991;28;20483;-50
2022/09/02 09:09:24;;;;;;;2.27;2.07;;;;;;;;;;4971204;28;20474;-52
2022/09/02 09:11:56;;;;;;;4.30;2.50;;;;;;;;;;4972720;28;20440;-52
2022/09/02 09:14:41;;;;;;;3.33;2.00;;;;;;;;;;4971864;28;20515;-52
2022/09/02 09:17:15;;;;;;;11.33;2.03;;;;;;;;;;4973345;28;20439;-53
2022/09/02 09:19:57;;;;;;;4.53;2.10;;;;;;;;;;4972374;28;21000;-50
2022/09/02 09:22:49;;;;;;;5.93;1.97;;;;;;;;;;4971611;28;20781;-52
2022/09/02 09:25:16;;;;;;;4.03;2.30;;;;;;;;;;4952439;28;20418;-51
2022/09/02 09:27:46;;;;;;;7.10;2.40;;;;;;;;;;4971452;28;20484;-51
2022/09/02 09:30:13;;;;;;;2.47;2.27;;;;;;;;;;4972998;28;20908;-52
2022/09/02 09:32:41;;;;;;;2.17;1.93;;;;;;;;;;4972819;28;20452;-52
2022/09/02 09:35:11;;;;;;;2.73;2.07;;;;;;;;;;4972242;28;20408;-51
2022/09/02 09:37:39;;;;;;;4.80;1.97;;;;;;;;;;4972022;28;20461;-51
2022/09/02 09:40:21;;;;;;;5.93;1.60;;;;;;;;;;4971610;28;20495;-51
2022/09/02 09:42:48;;;;;;;3.50;1.97;;;;;;;;;;4973034;28;21179;-53
2022/09/02 09:45:35;;;;;;;1.90;1.70;;;;;;;;;;4972434;28;20928;-52
2022/09/02 09:48:17;;;;;;;5.70;2.27;;;;;;;;;;4976268;28;20994;-52
2022/09/02 09:50:44;;;;;;;3.80;1.83;;;;;;;;;;4975910;28;20793;-52
2022/09/02 09:53:20;;;;;;;2.40;2.00;;;;;;;;;;4976553;28;20425;-53
2022/09/02 09:55:49;;;;;;;2.33;1.90;;;;;;;;;;4976473;28;20421;-53
2022/09/02 09:58:16;;;;;;;2.83;2.10;;;;;;;;;;4976800;28;20814;-51
2022/09/02 10:00:42;;;;;;;3.73;2.20;;;;;;;;;;4976231;28;20515;-52
2022/09/02 10:03:18;;;;;;;2.30;2.13;;;;;;;;;;4976773;28;20425;-53
2022/09/02 10:05:44;;;;;;;4.00;2.00;;;;;;;;;;4976473;28;20452;-53
2022/09/02 10:08:16;;;;;;;3.80;3.00;;;;;;;;;;4976477;28;20874;-52
2022/09/02 10:11:02;;;;;;;3.43;2.00;;;;;;;;;;4974667;28;20431;-51
2022/09/02 10:13:29;;;;;;;4.47;1.63;;;;;;;;;;4975305;28;20435;-49
2022/09/02 10:16:12;;;;;;;3.33;1.70;;;;;;;;;;4975543;28;20413;-52
2022/09/02 10:19:04;;;;;;;2.67;1.77;;;;;;;;;;4975661;28;20451;-53
2022/09/02 10:21:49;;;;;;;3.67;2.10;;;;;;;;;;4973579;28;20432;-53
2022/09/02 10:24:39;;;;;;;2.73;1.70;;;;;;;;;;4974050;28;20446;-53
2022/09/02 10:27:07;;;;;;;4.47;1.83;;;;;;;;;;4967438;28;20475;-51
2022/09/02 10:29:36;;;;;;;12.70;2.13;;;;;;;;;;4974483;28;20885;-52
2022/09/02 10:32:02;;;;;;;4.57;1.90;;;;;;;;;;4975204;28;20913;-51
2022/09/02 10:34:55;;;;;;;2.20;2.00;;;;;;;;;;4975801;28;20504;-51
2022/09/02 10:37:22;;;;;;;2.00;1.90;;;;;;;;;;4944033;28;20220;-51
2022/09/02 10:39:58;;;;;;;2.13;1.70;;;;;;;;;;4974888;28;20443;-52
2022/09/02 10:42:27;;;;;;;2.60;2.13;;;;;;;;;;4974015;28;20917;-51
2022/09/02 10:44:54;;;;;;;3.10;1.80;;;;;;;;;;4975998;28;20909;-53
2022/09/02 10:47:40;;;;;;;3.73;2.73;;;;;;;;;;4974610;28;20448;-53
2022/09/02 10:50:09;;;;;;;3.30;2.37;;;;;;;;;;4975952;28;21015;-51
2022/09/02 10:52:40;;;;;;;4.13;1.90;;;;;;;;;;4974587;28;20918;-52
2022/09/02 10:55:26;;;;;;;2.40;2.20;;;;;;;;;;4975671;28;21084;-53
2022/09/02 10:58:04;;;;;;;3.40;2.47;;;;;;;;;;4974041;28;20436;-51
2022/09/02 11:00:31;;;;;;;5.57;1.77;;;;;;;;;;4975095;28;20397;-51
2022/09/02 11:03:06;;;;;;;2.50;2.10;;;;;;;;;;4975214;28;20393;-51
2022/09/02 11:05:52;;;;;;;2.20;1.80;;;;;;;;;;4973626;28;20412;-52
2022/09/02 11:08:24;;;;;;;2.10;1.90;;;;;;;;;;4974652;28;20506;-50
2022/09/02 11:11:02;;;;;;;2.17;1.97;;;;;;;;;;4972842;28;20830;-50
2022/09/02 11:13:30;;;;;;;9.77;3.00;;;;;;;;;;4974786;28;20420;-52
2022/09/02 11:16:06;;;;;;;2.53;1.80;;;;;;;;;;4974642;28;20448;-50
2022/09/02 11:18:34;;;;;;;9.33;3.10;;;;;;;;;;4974185;28;20420;-52
2022/09/02 11:21:06;;;;;;;1.50;1.37;;;;;;;;;;4974399;28;20421;-52
2022/09/02 11:23:41;;;;;;;1.60;1.40;;;;;;;;;;4974326;28;20421;-52
2022/09/02 11:26:10;;;;;;;1.47;1.37;;;;;;;;;;4973909;28;21019;-51
2022/09/02 11:28:42;;;;;;;5.40;1.70;;;;;;;;;;4974216;28;20971;-52
2022/09/02 11:31:34;;;;;;;2.00;1.60;;;;;;;;;;4974589;28;20427;-52
2022/09/02 11:34:25;;;;;;;2.03;1.93;;;;;;;;;;4966118;28;20421;-53
2022/09/02 11:36:51;;;;;;;1.83;1.23;;;;;;;;;;4974003;28;20452;-54
2022/09/02 11:39:26;;;;;;;8.80;1.40;;;;;;;;;;4972847;28;20432;-54
2022/09/02 11:42:03;;;;;;;2.50;1.67;;;;;;;;;;4974266;28;20512;-53
2022/09/02 11:44:45;;;;;;;3.53;1.50;;;;;;;;;;4974347;28;20420;-54
2022/09/02 11:47:20;;;;;;;2.90;1.80;;;;;;;;;;4955920;28;20891;-53
2022/09/02 11:49:46;;;;;;;10.63;1.70;;;;;;;;;;4972864;28;20460;-54
2022/09/02 11:52:23;;;;;;;1.50;1.40;;;;;;;;;;4973136;28;20420;-53
2022/09/02 11:54:54;;;;;;;1.20;1.10;;;;;;;;;;4974238;28;20177;-55
2022/09/02 11:57:22;;;;;;;1.60;1.50;;;;;;;;;;4974033;28;20447;-55
2022/09/02 11:59:51;;;;;;;2.90;1.47;;;;;;;;;;4973755;28;20967;-54
2022/09/02 12:02:43;;;;;;;1.23;1.10;;;;;;;;;;4973974;28;20424;-54
2022/09/02 12:05:31;;;;;;;3.37;1.70;;;;;;;;;;4971659;28;20511;-54
2022/09/02 12:08:03;;;;;;;4.00;1.20;;;;;;;;;;4973665;28;20531;-54
2022/09/02 12:10:46;;;;;;;4.50;1.60;;;;;;;;;;4967015;28;20991;-54
2022/09/02 12:13:31;;;;;;;2.33;1.63;;;;;;;;;;4973838;28;20417;-53
2022/09/02 12:16:15;;;;;;;1.80;1.53;;;;;;;;;;4973339;28;20417;-52
2022/09/02 12:18:53;;;;;;;1.87;1.77;;;;;;;;;;4973366;28;20448;-51
2022/09/02 12:21:19;;;;;;;1.63;1.50;;;;;;;;;;4972566;28;20417;-53
2022/09/02 12:23:48;;;;;;;2.17;1.30;;;;;;;;;;4973684;28;20421;-52
2022/09/02 12:26:15;;;;;;;1.70;1.60;;;;;;;;;;4973579;28;20859;-53
2022/09/02 12:28:45;;;;;;;1.77;1.67;;;;;;;;;;4973206;28;20472;-54
2022/09/02 12:31:14;;;;;;;2.50;1.40;;;;;;;;;;4974058;28;20448;-53
2022/09/02 12:33:48;;;;;;;5.90;1.37;;;;;;;;;;4973496;28;20420;-52
2022/09/02 12:36:32;;;;;;;1.70;1.60;;;;;;;;;;4973566;28;20491;-53
2022/09/02 12:39:17;;;;;;;2.90;1.73;;;;;;;;;;4971285;28;20436;-53
2022/09/02 12:41:43;;;;;;;3.80;1.77;;;;;;;;;;4967308;28;20432;-53
2022/09/02 12:44:16;;;;;;;1.47;1.37;;;;;;;;;;4973411;28;20772;-54
2022/09/02 12:46:42;;;;;;;2.67;1.43;;;;;;;;;;4973531;28;20447;-54
2022/09/02 12:49:27;;;;;;;3.13;1.47;;;;;;;;;;4973021;28;20460;-54
2022/09/02 12:52:01;;;;;;;1.43;1.30;;;;;;;;;;4974068;28;20318;-54
2022/09/02 12:54:47;;;;;;;2.10;1.30;;;;;;;;;;4957476;28;20428;-52
2022/09/02 12:57:15;;;;;;;1.80;1.23;;;;;;;;;;4972577;28;20448;-51
2022/09/02 12:59:42;;;;;;;2.37;1.63;;;;;;;;;;4971347;28;20935;-53
2022/09/02 13:02:27;;;;;;;2.50;1.60;;;;;;;;;;4972693;28;21004;-54
2022/09/02 13:05:08;;;;;;;2.07;1.80;;;;;;;;;;4972890;28;20897;-53
2022/09/02 13:07:58;;;;;;;1.67;1.53;;;;;;;;;;4972080;28;20449;-55
2022/09/02 13:10:36;;;;;;;1.60;1.50;;;;;;;;;;4972725;28;20413;-53
2022/09/02 13:13:08;;;;;;;2.07;1.80;;;;;;;;;;4973484;28;20894;-54
2022/09/02 13:15:53;;;;;;;5.17;1.40;;;;;;;;;;4973544;28;20409;-53
2022/09/02 13:18:38;;;;;;;3.03;1.77;;;;;;;;;;4973181;28;20507;-53
2022/09/02 13:21:22;;;;;;;1.93;1.30;;;;;;;;;;4972747;28;20408;-51
2022/09/02 13:24:03;;;;;;;1.30;1.20;;;;;;;;;;4972282;28;20413;-52
2022/09/02 13:26:35;;;;;;;3.33;1.53;;;;;;;;;;4970791;28;20436;-52
2022/09/02 13:29:01;;;;;;;1.80;1.60;;;;;;;;;;4971061;28;20475;-52
2022/09/02 13:31:27;;;;;;;2.07;1.87;;;;;;;;;;4971076;28;20417;-52
2022/09/02 13:33:59;;;;;;;1.20;1.10;;;;;;;;;;4969825;28;20184;-52
2022/09/02 13:36:35;;;;;;;12.47;1.93;;;;;;;;;;4972417;28;20448;-53
2022/09/02 13:39:15;;;;;;;1.37;1.20;;;;;;;;;;4972103;28;20929;-52
2022/09/02 13:41:41;;;;;;;3.20;1.70;;;;;;;;;;4972516;28;20421;-51
2022/09/02 13:44:11;;;;;;;3.90;2.30;;;;;;;;;;4972461;28;20426;-51
2022/09/02 13:46:44;;;;;;;3.10;1.50;;;;;;;;;;4972146;28;20455;-51
2022/09/02 13:49:18;;;;;;;1.57;1.47;;;;;;;;;;4972307;28;20463;-51
2022/09/02 13:51:46;;;;;;;2.00;1.30;;;;;;;;;;4972543;28;20423;-52
2022/09/02 13:54:12;;;;;;;1.70;1.60;;;;;;;;;;4972266;28;20793;-51
2022/09/02 13:56:38;;;;;;;1.63;1.53;;;;;;;;;;4972162;28;20437;-52
2022/09/02 13:59:04;;;;;;;1.47;1.37;;;;;;;;;;4970074;28;20459;-52
2022/09/02 14:01:32;;;;;;;1.60;1.50;;;;;;;;;;4971622;28;20432;-52
2022/09/02 14:03:59;;;;;;;2.27;1.30;;;;;;;;;;4964967;28;20423;-52
2022/09/02 14:06:35;;;;;;;3.40;1.70;;;;;;;;;;4972159;28;20971;-51
2022/09/02 14:09:02;;;;;;;1.63;1.53;;;;;;;;;;4971905;28;20551;-51
2022/09/02 14:11:38;;;;;;;1.57;1.43;;;;;;;;;;4971991;28;20416;-52
2022/09/02 14:14:05;;;;;;;1.77;1.20;;;;;;;;;;4972487;28;20482;-52
2022/09/02 14:16:32;;;;;;;1.40;1.30;;;;;;;;;;4971933;28;20800;-53
2022/09/02 14:19:08;;;;;;;1.93;1.50;;;;;;;;;;4972000;28;20432;-53
2022/09/02 14:21:34;;;;;;;4.53;1.60;;;;;;;;;;4972214;28;20953;-52
2022/09/02 14:24:00;;;;;;;1.40;1.30;;;;;;;;;;4971289;28;20433;-52
2022/09/02 14:26:42;;;;;;;1.50;1.40;;;;;;;;;;4972071;28;20447;-52
2022/09/02 14:29:08;;;;;;;4.73;1.53;;;;;;;;;;4968764;28;20452;-52
2022/09/02 14:31:36;;;;;;;1.33;1.10;;;;;;;;;;4973296;28;20420;-52
2022/09/02 14:34:03;;;;;;;2.40;1.30;;;;;;;;;;4975145;28;20417;-52
2022/09/02 14:36:31;;;;;;;1.40;1.30;;;;;;;;;;4972821;28;20460;-52
2022/09/02 14:39:09;;;;;;;2.70;1.20;;;;;;;;;;4968985;28;20420;-51
2022/09/02 14:41:35;;;;;;;1.43;1.33;;;;;;;;;;4972884;28;20464;-52
2022/09/02 14:44:20;;;;;;;1.50;1.40;;;;;;;;;;4974578;28;20432;-51
2022/09/02 14:46:48;;;;;;;2.93;1.70;;;;;;;;;;4955063;28;20576;-52
2022/09/02 14:49:19;;;;;;;2.00;1.43;;;;;;;;;;4970423;28;20471;-51
2022/09/02 14:51:53;;;;;;;4.30;1.40;;;;;;;;;;4974638;28;20429;-53
2022/09/02 14:54:36;;;;;;;5.23;2.00;;;;;;;;;;4974549;28;20420;-52
2022/09/02 14:57:02;;;;;;;3.43;1.40;;;;;;;;;;4975256;28;20421;-53
2022/09/02 14:59:28;;;;;;;1.83;1.73;;;;;;;;;;4974571;28;20433;-52
2022/09/02 15:01:55;;;;;;;4.07;1.70;;;;;;;;;;4975135;28;20429;-52